Have a Safe July 4th! 

Flight Track Log - Related Links

Times and Time Zones

All times are in EDT time to prevent confusion due to time zone crossing. See the CTL22 flight status page for this flight to view local times or setup timezone preferences in your user account.

Time Position Orientation Groundspeed Altitude Reporting Facility
EDT Latitude Longitude Course Direction KTS MPH feet Rate Location/Type
Tue 09:31:43 PM 41.5519 -81.7153 337° Northwest 132 152 2,000  Level Cleveland Center
Tue 09:32:44 PM 41.5894 -81.7408 333° Northwest 179 206 2,000 372 Level Cleveland Center
Tue 09:33:36 PM 41.6222 -81.7719 325° Northwest 156 180 2,700 804 Climbing Cleveland Center
Tue 09:34:36 PM 41.6556 -81.7892 339° North 150 173 3,500 750 Climbing Cleveland Center
Tue 09:35:36 PM 41.6950 -81.8094 339° North 150 173 4,200 800 Climbing Cleveland Center
Tue 09:36:36 PM 41.7258 -81.8406 323° Northwest 145 167 5,100 800 Climbing Cleveland Center
Tue 09:37:36 PM 41.7400 -81.8856 293° West 131 151 5,800 450 Climbing Cleveland Center
Tue 09:38:36 PM 41.7581 -81.9303 298° West 137 158 6,000 100 Climbing Cleveland Center
Tue 09:39:36 PM 41.7806 -81.9836 300° West 149 171 6,000  Level Cleveland Center
Tue 09:40:36 PM 41.8028 -82.0344 300° West 161 185 6,000 50 Level Cleveland Center
Tue 09:41:36 PM 41.8250 -82.0878 299° West 166 191 6,100  Climbing Cleveland Center
Tue 09:42:36 PM 41.8450 -82.1414 297° West 166 191 6,000  Descending Cleveland Center
Tue 09:43:36 PM 41.8631 -82.1947 312° West 166 191 6,100 50 Climbing Cleveland Center
Tue 09:44:36 PM 41.8875 -82.2483 301° West 161 185 6,100 -50 Level Cleveland Center
Tue 09:45:36 PM 41.9094 -82.2992 300° West 161 185 6,000 -100 Descending Cleveland Center
Tue 09:46:36 PM 41.9339 -82.3500 303° West 161 185 5,900  Descending Cleveland Center
Tue 09:47:36 PM 41.9558 -82.4008 300° West 161 185 6,000 50 Climbing Cleveland Center
Tue 09:48:36 PM 41.9761 -82.4517 298° West 161 185 6,000  Level Cleveland Center
Tue 09:49:36 PM 41.9981 -82.5025 300° West 161 185 6,000  Level Cleveland Center
Tue 09:50:22 PM 42.0203 -82.5508 302° West 163 188 6,000  Level Cleveland Center
Tue 09:51:23 PM 42.0403 -82.6017 298° West 160 184 6,000  Level Cleveland Center
Tue 09:53:18 PM 42.0842 -82.7067 299° West 161 185 6,000  Level Cleveland Center
Tue 09:54:19 PM 42.1039 -82.7578 297° West 162 186 6,000  Level Cleveland Center
Tue 09:55:20 PM 42.1300 -82.8119 303° West 166 191 6,000 -49 Level Cleveland Center
Tue 09:56:21 PM 42.1497 -82.8686 295° West 165 190 5,900  Descending Cleveland Center
Tue 09:57:28 PM 42.1717 -82.9281 296° West 155 178 6,000 50 Climbing Cleveland Center
Tue 09:58:22 PM 42.1872 -82.9736 295° West 154 177 6,000  Level Cleveland Center
Tue 09:59:23 PM 42.2028 -83.0303 290° West 157 181 6,000  Level Cleveland Center
Tue 10:00:24 PM 42.2225 -83.0842 296° West 164 189 6,000  Level Cleveland Center
Tue 10:01:19 PM 42.2400 -83.1383 294° West 164 189 6,000  Level Cleveland Center
Tue 10:02:20 PM 42.2556 -83.1950 290° West 163 188 6,000  Level Cleveland Center
Tue 10:03:21 PM 42.2728 -83.2519 292° West 161 185 6,000  Level Cleveland Center
Tue 10:04:15 PM 42.2925 -83.3031 298° West 163 188 6,000  Level Cleveland Center
Tue 10:05:10 PM 42.3058 -83.3544 289° West 163 188 6,000 -43 Level Cleveland Center
Tue 10:06:35 PM 42.3311 -83.4342 293° West 160 184 5,900  Descending Cleveland Center
Tue 10:07:29 PM 42.3444 -83.4825 290° West 148 170 6,000 50 Climbing Cleveland Center
Tue 10:08:36 PM 42.3597 -83.5367 291° West 152 175 6,000  Level Cleveland Center
Tue 10:09:43 PM 42.3769 -83.5964 291° West 152 175 6,000  Level Cleveland Center
Tue 10:10:20 PM 42.3864 -83.6306 291° West 155 178 6,000  Level Cleveland Center
Tue 10:11:26 PM 42.4014 -83.6931 288° West 157 181 6,000  Level Cleveland Center
Tue 10:12:33 PM 42.4186 -83.7475 293° West 157 181 6,000  Level Cleveland Center
Tue 10:13:34 PM 42.4358 -83.8075 291° West 157 181 6,000  Level Cleveland Center
Tue 10:14:41 PM 42.4508 -83.8672 289° West 150 173 6,000  Level Cleveland Center
Tue 10:15:36 PM 42.4661 -83.9189 292° West 152 175 6,000 -49 Level Cleveland Center
Tue 10:16:43 PM 42.4811 -83.9731 291° West 152 175 5,900  Descending Cleveland Center
Tue 10:17:44 PM 42.4981 -84.0331 291° West 154 177 6,000  Climbing Cleveland Center
Tue 10:18:44 PM 42.5153 -84.0875 293° West 156 180 5,900  Descending Cleveland Center
Tue 10:19:45 PM 42.5344 -84.1367 298° West 154 177 6,000 52 Climbing Cleveland Center
Tue 10:20:40 PM 42.5497 -84.1883 292° West 155 178 6,000 -52 Level Cleveland Center
Tue 10:21:41 PM 42.5644 -84.2456 289° West 158 182 5,900 -52 Descending Cleveland Center
Tue 10:22:36 PM 42.5794 -84.2972 292° West 153 176 5,900  Level Cleveland Center
Tue 10:23:36 PM 42.5944 -84.3517 291° West 152 175 5,900 50 Level Cleveland Center
Tue 10:24:37 PM 42.6094 -84.4033 292° West 161 185 6,000 71 Climbing Cleveland Center
Tue 10:25:01 PM 42.6119 -84.4119 292° West 152 175 6,000  Level Chicago Center
Tue 10:26:02 PM 42.6303 -84.4769 291° West 155 178 6,000  Level Chicago Center
Tue 10:27:03 PM 42.6439 -84.5300 289° West 151 174 6,000  Level Chicago Center
Tue 10:28:05 PM 42.6583 -84.5861 289° West 156 180 6,000  Level Chicago Center
Tue 10:29:06 PM 42.6706 -84.6400 287° West 151 174 6,000  Level Chicago Center
Tue 10:30:07 PM 42.6836 -84.6936 288° West 150 173 6,000  Level Chicago Center
Tue 10:31:08 PM 42.6956 -84.7481 287° West 151 174 6,000  Level Chicago Center
Tue 10:32:09 PM 42.7106 -84.8033 290° West 154 177 6,000  Level Chicago Center
Tue 10:33:11 PM 42.7236 -84.8578 288° West 154 177 6,000  Level Chicago Center
Tue 10:34:12 PM 42.7364 -84.9117 288° West 151 174 6,000  Level Chicago Center
Tue 10:35:13 PM 42.7536 -84.9783 289° West 155 178 6,000  Level Chicago Center
Tue 10:36:14 PM 42.7667 -85.0322 288° West 153 176 6,000 -98 Level Chicago Center
Tue 10:37:16 PM 42.7819 -85.0872 291° West 154 177 5,800 -537 Descending Chicago Center
Tue 10:38:17 PM 42.7972 -85.1486 289° West 167 192 4,900 -815 Descending Chicago Center
Tue 10:40:20 PM 42.8286 -85.2733 289° West 174 200 3,300 -783 Descending Chicago Center
Tue 10:41:21 PM 42.8453 -85.3347 290° West 174 200 2,500 -541 Descending Chicago Center
Tue 10:42:22 PM 42.8581 -85.3894 288° West 163 188 2,200 -393 Descending Chicago Center
Tue 10:43:23 PM 42.8697 -85.4364 289° West 147 169 1,700 -488 Descending Chicago Center
Tue 10:44:25 PM 42.8786 -85.4833 285° West 135 155 1,200 -341 Descending Chicago Center
Tue 10:45:26 PM 42.8839 -85.5267 279° West 125 144 1,000 -197 Descending Chicago Center
Tue 10:47:00 PM 42.8808 -85.5228 270° West  Level Estimated
Tue 10:54:00 PM 42.8808 -85.5228 270° West  Level Estimated
Tue 10:55:00 PM 42.8808 -85.5228 270° West  Level Estimated
Tue 10:56:00 PM 42.8808 -85.5228 270° West  Level Estimated
Tue 10:57:00 PM 42.8808 -85.5228 270° West  Level Estimated
Tue 10:58:00 PM 42.8808 -85.5228 270° West  Level Estimated
Tue 10:59:00 PM 42.8808 -85.5228 270° West  Level Estimated
Tue 11:00:00 PM 42.8808 -85.5228 270° West  Level Estimated
Tue 11:01:00 PM 42.8808 -85.5228 270° West  Level Estimated
Tue 11:02:00 PM 42.8808 -85.5228 270° West  Level Estimated
Tue 11:03:00 PM 42.8808 -85.5228 270° West  Level Estimated

Login

Don't have an account? Register now (free) for customized features, flight alerts, and more!